Time;durP1;ratioP1;P1;durP2;ratioP2;P2;SDS_P1;SDS_P2;PMS_P1;PMS_P2;Temp;Humidity;BMP_temperature;BMP_pressure;BME280_temperature;BME280_humidity;BME280_pressure;Samples;Min_cycle;Max_cycle;Signal;HPM_P1;HPM_P2
2022/08/24 00:00:21;;;;;;;;;6.67;6.67;;;;;;;;5053132;28;51093;-59
2022/08/24 00:02:47;;;;;;;;;8.33;8.33;;;;;;;;5055010;28;51362;-59
2022/08/24 00:05:13;;;;;;;;;7.00;7.00;;;;;;;;5052708;27;51082;-59
2022/08/24 00:07:38;;;;;;;;;7.00;6.00;;;;;;;;5055545;27;51098;-58
2022/08/24 00:10:05;;;;;;;;;7.00;7.00;;;;;;;;5052122;27;51194;-58
2022/08/24 00:12:31;;;;;;;;;6.00;6.00;;;;;;;;5052177;28;51622;-58
2022/08/24 00:14:56;;;;;;;;;6.67;6.67;;;;;;;;5055010;28;51587;-58
2022/08/24 00:17:21;;;;;;;;;7.00;7.00;;;;;;;;5051904;28;52693;-59
2022/08/24 00:19:47;;;;;;;;;5.33;5.33;;;;;;;;5053120;28;51206;-58
2022/08/24 00:22:12;;;;;;;;;6.00;6.00;;;;;;;;5054096;28;52112;-58
2022/08/24 00:24:38;;;;;;;;;6.00;5.33;;;;;;;;5054352;27;51425;-59
2022/08/24 00:27:05;;;;;;;;;6.00;6.00;;;;;;;;5052482;28;52414;-60
2022/08/24 00:29:30;;;;;;;;;5.33;5.00;;;;;;;;5051853;28;51326;-58
2022/08/24 00:31:55;;;;;;;;;6.67;6.67;;;;;;;;5050680;28;51290;-59
2022/08/24 00:34:20;;;;;;;;;6.00;6.00;;;;;;;;5054042;28;51341;-59
2022/08/24 00:36:46;;;;;;;;;4.67;4.67;;;;;;;;5051125;28;54264;-57
2022/08/24 00:39:11;;;;;;;;;5.33;5.33;;;;;;;;5052171;28;51203;-60
2022/08/24 00:41:44;;;;;;;;;6.00;5.67;;;;;;;;5051995;27;51197;-58
2022/08/24 00:44:10;;;;;;;;;6.00;6.00;;;;;;;;5052594;28;52661;-58
2022/08/24 00:46:54;;;;;;;;;4.33;4.33;;;;;;;;5054276;28;51262;-58
2022/08/24 00:49:53;;;;;;;;;4.00;4.00;;;;;;;;5058485;27;51746;-58
2022/08/24 00:52:38;;;;;;;;;5.00;5.00;;;;;;;;5015141;28;51426;-58
2022/08/24 00:55:06;;;;;;;;;6.00;5.00;;;;;;;;5053486;27;51363;-58
2022/08/24 00:57:35;;;;;;;;;6.00;6.00;;;;;;;;5052250;27;51740;-59
2022/08/24 01:00:05;;;;;;;;;7.00;6.00;;;;;;;;5052206;28;51754;-59
2022/08/24 01:02:32;;;;;;;;;6.00;6.00;;;;;;;;5052877;28;51338;-59
2022/08/24 01:05:00;;;;;;;;;6.00;6.00;;;;;;;;5050045;28;51561;-59
2022/08/24 01:07:26;;;;;;;;;4.67;4.67;;;;;;;;5052023;28;52789;-60
2022/08/24 01:09:52;;;;;;;;;4.00;4.00;;;;;;;;5050176;28;51347;-59
2022/08/24 01:12:17;;;;;;;;;6.00;6.00;;;;;;;;5053762;28;51327;-60
2022/08/24 01:14:43;;;;;;;;;5.33;4.67;;;;;;;;5051785;28;51306;-59
2022/08/24 01:19:54;;;;;;;;;5.00;5.00;;;;;;;;5052739;28;53043;-59
2022/08/24 01:22:31;;;;;;;;;5.00;5.00;;;;;;;;5055155;28;51410;-58
2022/08/24 01:24:56;;;;;;;;;5.00;5.00;;;;;;;;5051740;28;51382;-58
2022/08/24 01:27:22;;;;;;;;;5.00;5.00;;;;;;;;5051144;27;53202;-59
2022/08/24 01:29:47;;;;;;;;;4.00;4.00;;;;;;;;5051967;27;51356;-59
2022/08/24 01:32:13;;;;;;;;;5.00;4.00;;;;;;;;5051976;27;51208;-59
2022/08/24 01:34:38;;;;;;;;;4.00;4.00;;;;;;;;5052219;27;51198;-59
2022/08/24 01:37:03;;;;;;;;;4.67;4.67;;;;;;;;5052231;28;53015;-58
2022/08/24 01:39:31;;;;;;;;;5.00;5.00;;;;;;;;5051041;28;51262;-59
2022/08/24 01:41:57;;;;;;;;;6.00;5.67;;;;;;;;5052836;28;51304;-58
2022/08/24 01:44:23;;;;;;;;;4.00;3.33;;;;;;;;5051045;28;51275;-58
2022/08/24 01:46:51;;;;;;;;;5.00;5.00;;;;;;;;5051125;28;53781;-58
2022/08/24 01:49:16;;;;;;;;;4.67;4.67;;;;;;;;5051006;27;51286;-59
2022/08/24 01:51:42;;;;;;;;;5.00;5.00;;;;;;;;5052261;28;51065;-59
2022/08/24 01:54:08;;;;;;;;;7.00;6.00;;;;;;;;5052650;28;51396;-58
2022/08/24 01:56:34;;;;;;;;;5.00;5.00;;;;;;;;5054766;28;51892;-59
2022/08/24 01:59:00;;;;;;;;;5.00;4.00;;;;;;;;5055598;27;51205;-60
2022/08/24 02:01:26;;;;;;;;;5.00;5.00;;;;;;;;5050510;27;51207;-58
2022/08/24 02:03:51;;;;;;;;;5.00;4.00;;;;;;;;5051620;28;51414;-58
2022/08/24 02:06:17;;;;;;;;;6.33;6.33;;;;;;;;5049903;27;51200;-59
2022/08/24 02:08:42;;;;;;;;;5.00;4.00;;;;;;;;5053293;28;51698;-59
2022/08/24 02:11:08;;;;;;;;;6.00;5.67;;;;;;;;5050480;28;51159;-59
2022/08/24 02:13:34;;;;;;;;;6.67;5.67;;;;;;;;5053660;28;51238;-58
2022/08/24 02:16:00;;;;;;;;;4.67;4.67;;;;;;;;5050959;28;53962;-59
2022/08/24 02:18:25;;;;;;;;;5.00;5.00;;;;;;;;5051281;28;52642;-59
2022/08/24 02:20:52;;;;;;;;;6.00;5.00;;;;;;;;5050874;28;51124;-59
2022/08/24 02:23:17;;;;;;;;;6.00;6.00;;;;;;;;5051766;27;51327;-59
2022/08/24 02:25:43;;;;;;;;;5.00;5.00;;;;;;;;5053314;28;52822;-59
2022/08/24 02:28:08;;;;;;;;;4.00;4.00;;;;;;;;5051280;28;51296;-59
2022/08/24 02:30:33;;;;;;;;;4.67;4.67;;;;;;;;5052204;28;51195;-59
2022/08/24 02:32:58;;;;;;;;;4.67;4.67;;;;;;;;5051813;28;51671;-59
2022/08/24 02:35:24;;;;;;;;;7.00;7.00;;;;;;;;5050138;28;52004;-59
2022/08/24 02:37:49;;;;;;;;;5.00;4.33;;;;;;;;5042345;28;51300;-59
2022/08/24 02:40:15;;;;;;;;;4.00;4.00;;;;;;;;5051669;28;51081;-59
2022/08/24 02:42:40;;;;;;;;;4.33;4.33;;;;;;;;5050349;28;51064;-60
2022/08/24 02:45:06;;;;;;;;;5.00;5.00;;;;;;;;5050136;28;52703;-57
2022/08/24 02:47:31;;;;;;;;;5.00;5.00;;;;;;;;5054175;28;51934;-57
2022/08/24 02:49:56;;;;;;;;;6.00;6.00;;;;;;;;5052495;27;51242;-59
2022/08/24 02:52:22;;;;;;;;;5.00;5.00;;;;;;;;5052610;28;52042;-59
2022/08/24 02:54:47;;;;;;;;;4.33;4.33;;;;;;;;5050189;28;52116;-60
2022/08/24 02:57:12;;;;;;;;;6.33;6.33;;;;;;;;5053299;28;51274;-58
2022/08/24 02:59:38;;;;;;;;;6.00;6.00;;;;;;;;5053090;28;51156;-58
2022/08/24 03:02:04;;;;;;;;;9.00;7.67;;;;;;;;5052406;28;51544;-59
2022/08/24 03:04:29;;;;;;;;;7.33;7.00;;;;;;;;5048752;28;52538;-58
2022/08/24 03:06:54;;;;;;;;;10.00;10.00;;;;;;;;5055857;27;52960;-59
2022/08/24 03:09:20;;;;;;;;;9.00;9.00;;;;;;;;5054388;27;52487;-58
2022/08/24 03:11:45;;;;;;;;;8.00;7.00;;;;;;;;5053636;28;52918;-58
2022/08/24 03:14:10;;;;;;;;;6.33;6.33;;;;;;;;5054957;28;51128;-59
2022/08/24 03:16:37;;;;;;;;;7.67;7.67;;;;;;;;5056561;28;51166;-58
2022/08/24 03:19:02;;;;;;;;;7.33;7.33;;;;;;;;5055171;28;51712;-58
2022/08/24 03:21:27;;;;;;;;;7.00;7.00;;;;;;;;5054008;27;51319;-59
2022/08/24 03:23:53;;;;;;;;;7.67;7.00;;;;;;;;5050810;28;51141;-58
2022/08/24 03:26:19;;;;;;;;;7.33;7.33;;;;;;;;5056485;27;52135;-58
2022/08/24 03:28:44;;;;;;;;;7.00;7.00;;;;;;;;5055417;28;51097;-60
2022/08/24 03:31:09;;;;;;;;;7.33;7.00;;;;;;;;5052783;27;52653;-59
2022/08/24 03:33:34;;;;;;;;;9.00;8.00;;;;;;;;5052976;27;51423;-57
2022/08/24 03:36:00;;;;;;;;;6.67;6.67;;;;;;;;5055977;28;52758;-59
2022/08/24 03:38:25;;;;;;;;;9.33;8.33;;;;;;;;5054549;28;51210;-58
2022/08/24 03:40:50;;;;;;;;;8.00;8.00;;;;;;;;5054245;28;52596;-58
2022/08/24 03:46:02;;;;;;;;;7.33;7.33;;;;;;;;5053132;28;51191;-59
2022/08/24 03:48:31;;;;;;;;;7.33;7.33;;;;;;;;5054022;28;52831;-59
2022/08/24 03:50:56;;;;;;;;;7.67;6.67;;;;;;;;5055456;28;51182;-59
2022/08/24 03:53:29;;;;;;;;;8.67;8.00;;;;;;;;5054090;28;52809;-58
2022/08/24 03:55:54;;;;;;;;;9.00;9.00;;;;;;;;5054405;28;51992;-59
2022/08/24 03:58:20;;;;;;;;;10.00;10.00;;;;;;;;5054267;28;51372;-59
2022/08/24 04:00:45;;;;;;;;;10.33;10.33;;;;;;;;5052954;27;51921;-59
2022/08/24 04:03:12;;;;;;;;;9.00;8.33;;;;;;;;5053942;28;51853;-59
2022/08/24 04:05:38;;;;;;;;;9.67;9.67;;;;;;;;5053107;28;51214;-58
2022/08/24 04:08:03;;;;;;;;;13.33;10.33;;;;;;;;5053981;28;51339;-58
2022/08/24 04:10:29;;;;;;;;;11.00;11.00;;;;;;;;5052411;28;51510;-59
2022/08/24 04:12:54;;;;;;;;;9.33;9.00;;;;;;;;5052351;27;52508;-59
2022/08/24 04:15:19;;;;;;;;;9.33;9.33;;;;;;;;5051229;28;51250;-59
2022/08/24 04:17:45;;;;;;;;;10.67;10.00;;;;;;;;5051896;28;51232;-59
2022/08/24 04:20:10;;;;;;;;;9.00;9.00;;;;;;;;5053035;28;51202;-59
2022/08/24 04:22:35;;;;;;;;;10.00;10.00;;;;;;;;5053170;28;54388;-58
2022/08/24 04:25:00;;;;;;;;;10.33;9.00;;;;;;;;5056297;28;52507;-59
2022/08/24 04:27:26;;;;;;;;;9.33;9.33;;;;;;;;5054553;27;51170;-60
2022/08/24 04:29:51;;;;;;;;;9.33;9.33;;;;;;;;5052163;28;51238;-58
2022/08/24 04:32:17;;;;;;;;;12.33;10.67;;;;;;;;5052621;28;52056;-59
2022/08/24 04:34:43;;;;;;;;;11.00;10.33;;;;;;;;5054314;27;51139;-58
2022/08/24 04:37:08;;;;;;;;;10.00;9.33;;;;;;;;5050526;28;52723;-58
2022/08/24 04:39:33;;;;;;;;;9.33;9.33;;;;;;;;5052302;27;51331;-59
2022/08/24 04:41:59;;;;;;;;;9.00;9.00;;;;;;;;5052562;28;51334;-60
2022/08/24 04:44:24;;;;;;;;;9.00;8.67;;;;;;;;5053491;28;51119;-59
2022/08/24 04:46:49;;;;;;;;;8.00;8.00;;;;;;;;5052136;27;51119;-58
2022/08/24 04:49:14;;;;;;;;;7.33;7.33;;;;;;;;5052454;27;51139;-58
2022/08/24 04:51:40;;;;;;;;;9.33;8.33;;;;;;;;5055652;28;51911;-59
2022/08/24 04:54:06;;;;;;;;;9.00;9.00;;;;;;;;5051200;28;51341;-59
2022/08/24 04:56:31;;;;;;;;;10.00;9.33;;;;;;;;5083318;27;51296;-59
2022/08/24 04:58:57;;;;;;;;;14.33;14.00;;;;;;;;5052435;28;51199;-58
2022/08/24 05:01:23;;;;;;;;;7.00;7.00;;;;;;;;5052320;28;52038;-58
2022/08/24 05:03:50;;;;;;;;;9.67;8.00;;;;;;;;5052950;28;51151;-59
2022/08/24 05:06:16;;;;;;;;;7.33;7.00;;;;;;;;5050109;28;51352;-58
2022/08/24 05:08:42;;;;;;;;;9.00;9.00;;;;;;;;5052073;27;51259;-59
2022/08/24 05:11:08;;;;;;;;;8.00;7.33;;;;;;;;5054606;28;51858;-59
2022/08/24 05:13:34;;;;;;;;;7.67;6.33;;;;;;;;5052566;28;51062;-59
2022/08/24 05:15:59;;;;;;;;;8.00;7.33;;;;;;;;5051102;28;51615;-59
2022/08/24 05:18:28;;;;;;;;;12.00;11.67;;;;;;;;5052150;28;51407;-59
2022/08/24 05:20:53;;;;;;;;;10.00;8.00;;;;;;;;5054826;28;52119;-58
2022/08/24 05:23:19;;;;;;;;;2.00;2.00;;;;;;;;5051571;27;51305;-58
2022/08/24 05:25:44;;;;;;;;;8.00;5.33;;;;;;;;5049677;28;51473;-58
2022/08/24 05:28:09;;;;;;;;;9.00;9.00;;;;;;;;5050904;28;51246;-58
2022/08/24 05:30:35;;;;;;;;;7.00;7.00;;;;;;;;5051836;28;52768;-59
2022/08/24 05:33:01;;;;;;;;;8.00;8.00;;;;;;;;5049858;27;51397;-58
2022/08/24 05:35:26;;;;;;;;;10.00;9.33;;;;;;;;5051721;28;51306;-59
2022/08/24 05:37:51;;;;;;;;;11.00;10.00;;;;;;;;5051993;28;51495;-58
2022/08/24 05:40:17;;;;;;;;;7.67;7.67;;;;;;;;5050239;27;52271;-58
2022/08/24 05:42:43;;;;;;;;;9.67;9.67;;;;;;;;5053966;28;51355;-58
2022/08/24 05:45:09;;;;;;;;;8.00;8.00;;;;;;;;5052483;28;51093;-60
2022/08/24 05:47:35;;;;;;;;;10.33;10.00;;;;;;;;5052531;28;51536;-59
2022/08/24 05:50:00;;;;;;;;;10.00;9.00;;;;;;;;5050479;27;51289;-59
2022/08/24 05:52:26;;;;;;;;;7.00;6.00;;;;;;;;5058137;28;51179;-59
2022/08/24 05:54:53;;;;;;;;;10.00;9.00;;;;;;;;5064059;27;51078;-60
2022/08/24 05:57:18;;;;;;;;;7.33;7.00;;;;;;;;5071196;27;50934;-59
2022/08/24 05:59:44;;;;;;;;;10.00;10.00;;;;;;;;5073004;28;51249;-59
2022/08/24 06:02:09;;;;;;;;;8.67;8.67;;;;;;;;5072841;27;51007;-59
2022/08/24 06:04:36;;;;;;;;;9.67;9.67;;;;;;;;5071754;28;51138;-59
2022/08/24 06:07:02;;;;;;;;;8.67;8.67;;;;;;;;5071912;28;50954;-58
2022/08/24 06:09:27;;;;;;;;;9.00;8.67;;;;;;;;5073028;27;51754;-59
2022/08/24 06:11:52;;;;;;;;;8.33;7.33;;;;;;;;5073135;27;51074;-59
2022/08/24 06:14:17;;;;;;;;;8.00;8.00;;;;;;;;5072668;27;50962;-59
2022/08/24 06:16:44;;;;;;;;;8.67;7.00;;;;;;;;5072396;28;51364;-59
2022/08/24 06:19:11;;;;;;;;;9.00;7.67;;;;;;;;5072510;28;51254;-60
2022/08/24 06:21:37;;;;;;;;;8.00;7.00;;;;;;;;5072971;28;51045;-59
2022/08/24 06:24:03;;;;;;;;;5.00;5.00;;;;;;;;5072835;28;51045;-59
2022/08/24 06:29:12;;;;;;;;;5.67;5.33;;;;;;;;5059127;28;51099;-59
2022/08/24 06:31:39;;;;;;;;;5.00;5.00;;;;;;;;5071230;27;51194;-59
2022/08/24 06:34:05;;;;;;;;;5.67;4.67;;;;;;;;5071362;28;51068;-58
2022/08/24 06:36:30;;;;;;;;;5.67;5.33;;;;;;;;5072583;28;50943;-59
2022/08/24 06:38:55;;;;;;;;;6.67;5.67;;;;;;;;5072472;28;51774;-60
2022/08/24 06:41:20;;;;;;;;;5.00;5.00;;;;;;;;5053083;28;50971;-59
2022/08/24 06:43:46;;;;;;;;;4.33;4.33;;;;;;;;5072956;28;51072;-60
2022/08/24 06:46:11;;;;;;;;;5.33;5.33;;;;;;;;5062741;27;51345;-60
2022/08/24 06:48:36;;;;;;;;;5.00;5.00;;;;;;;;5058925;27;52315;-60
2022/08/24 06:51:07;;;;;;;;;5.00;5.00;;;;;;;;5083497;27;50903;-59
2022/08/24 06:53:32;;;;;;;;;4.67;4.67;;;;;;;;5072204;27;51063;-60
2022/08/24 06:55:57;;;;;;;;;5.00;4.67;;;;;;;;5070962;28;51428;-60
2022/08/24 06:58:24;;;;;;;;;4.67;4.67;;;;;;;;5070462;28;53907;-60
2022/08/24 07:00:49;;;;;;;;;5.33;5.33;;;;;;;;5070295;28;51102;-59
2022/08/24 07:03:15;;;;;;;;;4.00;3.67;;;;;;;;5063887;27;51231;-61
2022/08/24 07:05:48;;;;;;;;;5.00;5.00;;;;;;;;5067254;28;50919;-60
2022/08/24 07:08:13;;;;;;;;;6.00;6.00;;;;;;;;5072460;27;52173;-59
2022/08/24 07:10:38;;;;;;;;;4.33;4.00;;;;;;;;5072276;28;51107;-60
2022/08/24 07:13:03;;;;;;;;;7.67;6.00;;;;;;;;5072638;28;51040;-60
2022/08/24 07:15:28;;;;;;;;;5.00;4.67;;;;;;;;5072029;28;50976;-61
2022/08/24 07:17:54;;;;;;;;;5.00;5.00;;;;;;;;5072034;28;52315;-59
2022/08/24 07:20:19;;;;;;;;;5.67;5.67;;;;;;;;5062493;27;50995;-60
2022/08/24 07:22:44;;;;;;;;;5.00;4.00;;;;;;;;5068019;28;51064;-61
2022/08/24 07:25:10;;;;;;;;;4.00;4.00;;;;;;;;5072378;28;50975;-60
2022/08/24 07:27:35;;;;;;;;;4.00;4.00;;;;;;;;5071980;28;50967;-60
2022/08/24 07:30:01;;;;;;;;;4.33;4.33;;;;;;;;5071851;27;50956;-60
2022/08/24 07:32:27;;;;;;;;;4.00;4.00;;;;;;;;5070032;27;51219;-60
2022/08/24 07:34:53;;;;;;;;;4.00;4.00;;;;;;;;5069095;27;51065;-60
2022/08/24 07:37:18;;;;;;;;;3.67;3.67;;;;;;;;5066832;27;51110;-59
2022/08/24 07:39:43;;;;;;;;;9.33;9.00;;;;;;;;5062941;28;51115;-61
2022/08/24 07:42:08;;;;;;;;;5.33;4.67;;;;;;;;5071837;28;50850;-60
2022/08/24 07:44:34;;;;;;;;;5.67;5.00;;;;;;;;5072141;28;51278;-60
2022/08/24 07:46:59;;;;;;;;;4.67;4.67;;;;;;;;5070192;28;52696;-60
2022/08/24 07:49:25;;;;;;;;;5.00;5.00;;;;;;;;5078389;27;51106;-60
2022/08/24 07:51:52;;;;;;;;;5.00;4.67;;;;;;;;5075176;27;51081;-60
2022/08/24 07:54:17;;;;;;;;;5.00;4.00;;;;;;;;5073325;27;50946;-60
2022/08/24 07:56:42;;;;;;;;;4.67;3.00;;;;;;;;5062998;28;51227;-61
2022/08/24 07:59:08;;;;;;;;;3.67;3.67;;;;;;;;5074909;28;51192;-61
2022/08/24 08:01:33;;;;;;;;;3.00;3.00;;;;;;;;5074684;27;51266;-61
2022/08/24 08:03:59;;;;;;;;;3.33;3.33;;;;;;;;5074006;28;51227;-61
2022/08/24 08:06:24;;;;;;;;;3.00;3.00;;;;;;;;5074745;28;51162;-62
2022/08/24 08:08:49;;;;;;;;;4.00;4.00;;;;;;;;5074879;28;51170;-61
2022/08/24 08:11:15;;;;;;;;;4.33;4.33;;;;;;;;5069830;27;51071;-61
2022/08/24 08:13:40;;;;;;;;;3.00;3.00;;;;;;;;5066372;28;51392;-62
2022/08/24 08:16:05;;;;;;;;;5.00;5.00;;;;;;;;5073961;28;51828;-61
2022/08/24 08:18:31;;;;;;;;;5.33;4.67;;;;;;;;5074995;27;50919;-60
2022/08/24 08:20:56;;;;;;;;;5.00;4.00;;;;;;;;5074432;27;51028;-60
2022/08/24 08:26:07;;;;;;;;;3.00;3.00;;;;;;;;5072494;28;51110;-61
2022/08/24 08:28:33;;;;;;;;;4.00;4.00;;;;;;;;5063876;27;50979;-60
2022/08/24 08:31:02;;;;;;;;;5.00;4.00;;;;;;;;5063108;28;50970;-60
2022/08/24 08:33:28;;;;;;;;;4.33;4.33;;;;;;;;5073084;28;51031;-60
2022/08/24 08:36:13;;;;;;;;;2.67;2.67;;;;;;;;5073965;27;51079;-60
2022/08/24 08:38:39;;;;;;;;;3.67;3.67;;;;;;;;5074127;27;50968;-61
2022/08/24 08:41:18;;;;;;;;;4.00;4.00;;;;;;;;5074213;27;51084;-61
2022/08/24 08:43:43;;;;;;;;;4.00;4.00;;;;;;;;5074175;27;51053;-61
2022/08/24 08:46:14;;;;;;;;;4.00;4.00;;;;;;;;5072712;27;52938;-60
2022/08/24 08:49:12;;;;;;;;;3.67;3.67;;;;;;;;5075756;27;51188;-60
2022/08/24 08:51:50;;;;;;;;;4.33;4.00;;;;;;;;5059183;28;50987;-59
2022/08/24 08:54:21;;;;;;;;;3.00;2.33;;;;;;;;5072303;28;50971;-60
2022/08/24 08:56:59;;;;;;;;;2.33;2.33;;;;;;;;5073762;28;51886;-60
2022/08/24 08:59:41;;;;;;;;;3.67;2.33;;;;;;;;5073587;28;51009;-60
2022/08/24 09:02:25;;;;;;;;;4.00;3.67;;;;;;;;5072472;27;50994;-61
2022/08/24 09:05:05;;;;;;;;;2.00;2.00;;;;;;;;5073121;27;51856;-60
2022/08/24 09:07:34;;;;;;;;;4.00;4.00;;;;;;;;5073541;28;50999;-59
2022/08/24 09:10:16;;;;;;;;;3.00;3.00;;;;;;;;5074090;28;51033;-59
2022/08/24 09:12:53;;;;;;;;;2.00;2.00;;;;;;;;5073484;28;50980;-61
2022/08/24 09:15:19;;;;;;;;;3.33;3.33;;;;;;;;5073118;28;51284;-61
2022/08/24 09:18:10;;;;;;;;;6.00;6.00;;;;;;;;5073185;28;51535;-61
2022/08/24 09:20:54;;;;;;;;;1.33;1.33;;;;;;;;5052630;28;51202;-61
2022/08/24 09:23:35;;;;;;;;;3.67;2.67;;;;;;;;5078502;27;51059;-61
2022/08/24 09:26:00;;;;;;;;;3.00;2.67;;;;;;;;5065703;28;51129;-62
2022/08/24 09:28:34;;;;;;;;;3.00;1.67;;;;;;;;5061480;27;51799;-61
2022/08/24 09:31:18;;;;;;;;;0.67;0.00;;;;;;;;5068069;28;51115;-60
2022/08/24 09:33:59;;;;;;;;;3.00;2.00;;;;;;;;5069384;27;51014;-62
2022/08/24 09:36:39;;;;;;;;;2.00;2.00;;;;;;;;5068107;27;51367;-62
2022/08/24 09:39:09;;;;;;;;;4.00;3.00;;;;;;;;5064053;28;52297;-60
2022/08/24 09:41:53;;;;;;;;;2.67;2.67;;;;;;;;5073032;28;50939;-60
2022/08/24 09:44:33;;;;;;;;;8.00;7.00;;;;;;;;5073259;27;51162;-61
2022/08/24 09:46:58;;;;;;;;;1.67;1.67;;;;;;;;5072979;28;50946;-61
2022/08/24 09:49:47;;;;;;;;;3.00;2.00;;;;;;;;5077212;27;52191;-61
2022/08/24 09:52:41;;;;;;;;;2.00;2.00;;;;;;;;5069154;28;50974;-60
2022/08/24 09:55:19;;;;;;;;;1.67;1.67;;;;;;;;4990272;27;51038;-60
2022/08/24 09:57:54;;;;;;;;;2.00;2.00;;;;;;;;5071244;28;51169;-60
2022/08/24 10:00:40;;;;;;;;;1.00;1.00;;;;;;;;5071965;28;51209;-60
2022/08/24 10:03:06;;;;;;;;;2.33;1.33;;;;;;;;5072625;27;51104;-62
2022/08/24 10:05:40;;;;;;;;;1.00;1.00;;;;;;;;5070844;28;51194;-62
2022/08/24 10:08:09;;;;;;;;;2.00;2.00;;;;;;;;5070604;28;51050;-62
2022/08/24 10:10:49;;;;;;;;;2.33;2.33;;;;;;;;5066335;27;53114;-61
2022/08/24 10:13:15;;;;;;;;;1.00;1.00;;;;;;;;5069353;28;51032;-61
2022/08/24 10:15:40;;;;;;;;;1.00;1.00;;;;;;;;5068776;28;51061;-60
2022/08/24 10:18:05;;;;;;;;;1.00;1.00;;;;;;;;5072743;28;51239;-60
2022/08/24 10:20:33;;;;;;;;;0.00;0.00;;;;;;;;5071834;28;51770;-60
2022/08/24 10:23:17;;;;;;;;;1.00;1.00;;;;;;;;5072445;28;50975;-60
2022/08/24 10:25:51;;;;;;;;;0.33;0.33;;;;;;;;5071202;27;51207;-60
2022/08/24 10:28:41;;;;;;;;;2.33;2.00;;;;;;;;5062187;28;51310;-60
2022/08/24 10:31:08;;;;;;;;;1.33;1.33;;;;;;;;5071478;28;51953;-60
2022/08/24 10:33:42;;;;;;;;;1.33;1.33;;;;;;;;5071886;27;51106;-61
2022/08/24 10:36:32;;;;;;;;;2.33;2.00;;;;;;;;5072069;27;51015;-61
2022/08/24 10:41:47;;;;;;;;;3.33;3.00;;;;;;;;5070612;27;51177;-61
2022/08/24 10:44:23;;;;;;;;;1.67;1.67;;;;;;;;5071969;28;50966;-60
2022/08/24 10:46:50;;;;;;;;;2.67;2.67;;;;;;;;5071913;28;51188;-60
2022/08/24 10:49:22;;;;;;;;;0.00;0.00;;;;;;;;5077364;27;51001;-61
2022/08/24 10:52:06;;;;;;;;;3.00;3.00;;;;;;;;5071720;27;51000;-61
2022/08/24 10:54:32;;;;;;;;;1.00;0.67;;;;;;;;5067101;28;50972;-60
2022/08/24 10:57:05;;;;;;;;;1.67;1.67;;;;;;;;5071732;28;50924;-60
2022/08/24 10:59:42;;;;;;;;;2.00;1.00;;;;;;;;5070640;27;51136;-61
2022/08/24 11:02:08;;;;;;;;;3.00;2.67;;;;;;;;5071133;28;52344;-61
2022/08/24 11:04:34;;;;;;;;;0.00;0.00;;;;;;;;5071399;27;50998;-61
2022/08/24 11:07:18;;;;;;;;;1.00;1.00;;;;;;;;5063473;28;51105;-61
2022/08/24 11:09:52;;;;;;;;;2.33;2.00;;;;;;;;5051181;28;51229;-59
2022/08/24 11:12:20;;;;;;;;;0.00;0.00;;;;;;;;5043941;28;50849;-60
2022/08/24 11:14:46;;;;;;;;;0.00;0.00;;;;;;;;5050877;28;51175;-61
2022/08/24 11:17:14;;;;;;;;;1.00;1.00;;;;;;;;5048675;28;51100;-60
2022/08/24 11:19:39;;;;;;;;;0.00;0.00;;;;;;;;5033199;28;51379;-61
2022/08/24 11:22:20;;;;;;;;;0.00;0.00;;;;;;;;5050912;28;52207;-60
2022/08/24 11:24:46;;;;;;;;;0.00;0.00;;;;;;;;5051220;28;50976;-61
2022/08/24 11:27:14;;;;;;;;;1.00;1.00;;;;;;;;5051797;28;50955;-60
2022/08/24 11:30:06;;;;;;;;;1.00;0.67;;;;;;;;5029155;28;51320;-59
2022/08/24 11:32:37;;;;;;;;;0.00;0.00;;;;;;;;5051741;28;51907;-60
2022/08/24 11:35:04;;;;;;;;;1.00;1.00;;;;;;;;5049071;28;51101;-60
2022/08/24 11:37:34;;;;;;;;;0.00;0.00;;;;;;;;5053863;28;51178;-60
2022/08/24 11:39:59;;;;;;;;;0.00;0.00;;;;;;;;5054834;28;50995;-60
2022/08/24 11:42:27;;;;;;;;;1.33;1.33;;;;;;;;5054513;28;51853;-60
2022/08/24 11:45:00;;;;;;;;;1.00;1.00;;;;;;;;5053686;28;50999;-61
2022/08/24 11:47:31;;;;;;;;;1.00;1.00;;;;;;;;5036376;28;51253;-60
2022/08/24 11:49:57;;;;;;;;;2.00;2.00;;;;;;;;5059463;28;51331;-60
2022/08/24 11:52:22;;;;;;;;;3.33;3.33;;;;;;;;5053779;28;52564;-61
2022/08/24 11:54:54;;;;;;;;;7.00;6.00;;;;;;;;5054074;28;51103;-61
2022/08/24 11:57:37;;;;;;;;;0.00;0.00;;;;;;;;5054000;28;50916;-60
2022/08/24 12:00:12;;;;;;;;;0.67;0.67;;;;;;;;5036025;28;51305;-61
2022/08/24 12:02:54;;;;;;;;;0.00;0.00;;;;;;;;5051995;28;51226;-59
2022/08/24 12:05:37;;;;;;;;;0.00;0.00;;;;;;;;5053648;28;51113;-60
2022/08/24 12:08:38;;;;;;;;;0.00;0.00;;;;;;;;5070932;27;51094;-60
2022/08/24 12:11:31;;;;;;;;;0.67;0.67;;;;;;;;5039426;28;50868;-59
2022/08/24 12:14:08;;;;;;;;;0.67;0.67;;;;;;;;5073459;28;52590;-60
2022/08/24 12:16:52;;;;;;;;;1.00;0.00;;;;;;;;5074026;27;50963;-61
2022/08/24 12:19:20;;;;;;;;;2.33;2.00;;;;;;;;5074300;28;51361;-60
2022/08/24 12:21:48;;;;;;;;;8.33;7.33;;;;;;;;5074453;27;51096;-60
2022/08/24 12:24:28;;;;;;;;;3.00;3.00;;;;;;;;5073942;28;51860;-60
2022/08/24 12:26:56;;;;;;;;;2.00;2.00;;;;;;;;5059997;28;50987;-60
2022/08/24 12:29:24;;;;;;;;;0.00;0.00;;;;;;;;5073568;28;51256;-61
2022/08/24 12:31:54;;;;;;;;;0.33;0.33;;;;;;;;5073869;28;51046;-59
2022/08/24 12:34:23;;;;;;;;;1.33;1.00;;;;;;;;5073648;28;52086;-60
2022/08/24 12:37:05;;;;;;;;;0.00;0.00;;;;;;;;5073927;28;51199;-61
2022/08/24 12:39:34;;;;;;;;;2.00;1.00;;;;;;;;5071452;28;50906;-60
2022/08/24 12:42:15;;;;;;;;;0.67;0.67;;;;;;;;5073922;28;51300;-59
2022/08/24 12:44:44;;;;;;;;;0.00;0.00;;;;;;;;5073267;28;51905;-60
2022/08/24 12:47:24;;;;;;;;;2.33;1.33;;;;;;;;5073680;28;51021;-59
2022/08/24 12:49:54;;;;;;;;;1.00;0.00;;;;;;;;5072122;28;51023;-59
2022/08/24 12:52:38;;;;;;;;;0.00;0.00;;;;;;;;5073645;28;50944;-59
2022/08/24 12:55:21;;;;;;;;;3.00;2.67;;;;;;;;5071722;28;54085;-60
2022/08/24 12:57:56;;;;;;;;;0.00;0.00;;;;;;;;5073649;27;51020;-61
2022/08/24 13:00:24;;;;;;;;;1.00;1.00;;;;;;;;5073459;28;51068;-59
2022/08/24 13:02:54;;;;;;;;;2.00;1.00;;;;;;;;5073883;27;51181;-59
2022/08/24 13:05:20;;;;;;;;;2.00;2.00;;;;;;;;5073372;28;51834;-59
2022/08/24 13:07:47;;;;;;;;;2.33;1.33;;;;;;;;5073160;28;51096;-61
2022/08/24 13:10:32;;;;;;;;;0.67;0.00;;;;;;;;5072021;28;51221;-60
2022/08/24 13:13:01;;;;;;;;;1.00;1.00;;;;;;;;5073220;28;51003;-60
2022/08/24 13:15:26;;;;;;;;;1.67;1.67;;;;;;;;5072672;28;52004;-60
2022/08/24 13:17:56;;;;;;;;;1.00;1.00;;;;;;;;5072703;28;50958;-60
2022/08/24 13:20:33;;;;;;;;;0.00;0.00;;;;;;;;5072812;28;50977;-60
2022/08/24 13:23:03;;;;;;;;;1.00;1.00;;;;;;;;5073065;28;51110;-60
2022/08/24 13:25:41;;;;;;;;;0.00;0.00;;;;;;;;5072892;27;51123;-60
2022/08/24 13:28:08;;;;;;;;;1.00;1.00;;;;;;;;5065960;28;50956;-60
2022/08/24 13:30:36;;;;;;;;;0.00;0.00;;;;;;;;5070300;28;51081;-60
2022/08/24 13:33:03;;;;;;;;;1.00;0.33;;;;;;;;5073136;27;51302;-61
2022/08/24 13:35:34;;;;;;;;;0.00;0.00;;;;;;;;5069401;27;52086;-60
2022/08/24 13:38:28;;;;;;;;;0.00;0.00;;;;;;;;5070491;27;51133;-60
2022/08/24 13:40:57;;;;;;;;;2.67;2.67;;;;;;;;5068117;28;51021;-60
2022/08/24 13:43:38;;;;;;;;;0.00;0.00;;;;;;;;5073027;27;50854;-59
2022/08/24 13:46:22;;;;;;;;;4.67;4.67;;;;;;;;5072505;27;51199;-59
2022/08/24 13:48:59;;;;;;;;;1.00;1.00;;;;;;;;5072945;27;51195;-59
2022/08/24 13:51:38;;;;;;;;;0.00;0.00;;;;;;;;5072750;28;52135;-59
2022/08/24 13:54:04;;;;;;;;;1.00;1.00;;;;;;;;5072412;28;51326;-60
2022/08/24 13:56:36;;;;;;;;;1.00;1.00;;;;;;;;5072038;27;50957;-60
2022/08/24 13:59:10;;;;;;;;;1.00;0.33;;;;;;;;5072624;27;50878;-61
2022/08/24 14:01:36;;;;;;;;;0.00;0.00;;;;;;;;5071947;27;50819;-61
2022/08/24 14:04:10;;;;;;;;;0.00;0.00;;;;;;;;5072749;28;50925;-60
2022/08/24 14:06:54;;;;;;;;;0.00;0.00;;;;;;;;5061649;27;51940;-60
2022/08/24 14:09:39;;;;;;;;;0.00;0.00;;;;;;;;5072661;28;50961;-60
2022/08/24 14:12:05;;;;;;;;;1.00;0.00;;;;;;;;5072397;28;51203;-59
2022/08/24 14:14:42;;;;;;;;;0.00;0.00;;;;;;;;5072265;28;51087;-60
2022/08/24 14:20:07;;;;;;;;;1.00;1.00;;;;;;;;5072492;28;51050;-60
2022/08/24 14:22:42;;;;;;;;;0.00;0.00;;;;;;;;5071068;28;51128;-60
2022/08/24 14:25:21;;;;;;;;;0.33;0.00;;;;;;;;5072237;28;51172;-60
2022/08/24 14:28:09;;;;;;;;;2.67;2.00;;;;;;;;5055301;28;51215;-59
2022/08/24 14:30:34;;;;;;;;;0.00;0.00;;;;;;;;5068936;28;50917;-59
2022/08/24 14:32:59;;;;;;;;;1.00;0.00;;;;;;;;5072017;27;51155;-59
2022/08/24 14:35:50;;;;;;;;;2.00;1.00;;;;;;;;5071947;27;51303;-59
2022/08/24 14:38:15;;;;;;;;;0.00;0.00;;;;;;;;5043549;27;52146;-60
2022/08/24 14:40:59;;;;;;;;;0.00;0.00;;;;;;;;5072177;27;50970;-59
2022/08/24 14:43:30;;;;;;;;;0.67;0.67;;;;;;;;5072228;27;51058;-60
2022/08/24 14:45:59;;;;;;;;;0.00;0.00;;;;;;;;5072152;27;51019;-60
2022/08/24 14:48:34;;;;;;;;;0.33;0.33;;;;;;;;5070321;28;52848;-60
2022/08/24 14:51:18;;;;;;;;;0.00;0.00;;;;;;;;5071885;27;51053;-60
2022/08/24 14:53:49;;;;;;;;;0.00;0.00;;;;;;;;5072137;27;51122;-61
2022/08/24 14:56:33;;;;;;;;;0.00;0.00;;;;;;;;5072025;28;50952;-60
2022/08/24 14:59:04;;;;;;;;;0.00;0.00;;;;;;;;5071724;27;51316;-59
2022/08/24 15:01:43;;;;;;;;;0.00;0.00;;;;;;;;5071355;28;51065;-59
2022/08/24 15:04:21;;;;;;;;;0.00;0.00;;;;;;;;5074713;27;51085;-58
2022/08/24 15:06:46;;;;;;;;;0.00;0.00;;;;;;;;5075694;28;51245;-60
2022/08/24 15:09:23;;;;;;;;;0.00;0.00;;;;;;;;5075022;28;51062;-59
2022/08/24 15:11:49;;;;;;;;;0.00;0.00;;;;;;;;5074607;28;51053;-60